sensor_id;sensor_type;location;lat;lon;timestamp;temperature;humidity
4759;DHT22;2393;50.560;12.636;2023-04-07T00:01:47;-1.10;99.90
4759;DHT22;2393;50.560;12.636;2023-04-07T00:04:15;-1.10;99.90
4759;DHT22;2393;50.560;12.636;2023-04-07T00:06:43;-1.10;99.90
4759;DHT22;2393;50.560;12.636;2023-04-07T00:09:11;-1.20;99.90
4759;DHT22;2393;50.560;12.636;2023-04-07T00:11:39;-1.20;99.90
4759;DHT22;2393;50.560;12.636;2023-04-07T00:14:07;-1.30;99.90
4759;DHT22;2393;50.560;12.636;2023-04-07T00:16:37;-1.30;99.90
4759;DHT22;2393;50.560;12.636;2023-04-07T00:19:05;-1.40;99.90
4759;DHT22;2393;50.560;12.636;2023-04-07T00:21:33;-1.40;99.90
4759;DHT22;2393;50.560;12.636;2023-04-07T00:24:01;-1.50;99.90
4759;DHT22;2393;50.560;12.636;2023-04-07T00:26:29;-1.50;99.90
4759;DHT22;2393;50.560;12.636;2023-04-07T00:28:59;-1.60;99.90
4759;DHT22;2393;50.560;12.636;2023-04-07T00:31:27;-1.60;99.90
4759;DHT22;2393;50.560;12.636;2023-04-07T00:33:56;-1.60;99.90
4759;DHT22;2393;50.560;12.636;2023-04-07T00:36:25;-1.60;99.90
4759;DHT22;2393;50.560;12.636;2023-04-07T00:38:54;-1.60;99.90
4759;DHT22;2393;50.560;12.636;2023-04-07T00:41:22;-1.60;99.90
4759;DHT22;2393;50.560;12.636;2023-04-07T00:43:51;-1.60;99.90
4759;DHT22;2393;50.560;12.636;2023-04-07T00:46:21;-1.60;99.90
4759;DHT22;2393;50.560;12.636;2023-04-07T00:48:49;-1.60;99.90
4759;DHT22;2393;50.560;12.636;2023-04-07T00:51:20;-1.60;99.90
4759;DHT22;2393;50.560;12.636;2023-04-07T00:53:48;-1.60;99.90
4759;DHT22;2393;50.560;12.636;2023-04-07T00:56:16;-1.60;99.90
4759;DHT22;2393;50.560;12.636;2023-04-07T00:58:44;-1.70;99.90
4759;DHT22;2393;50.560;12.636;2023-04-07T01:01:18;-1.70;99.90
4759;DHT22;2393;50.560;12.636;2023-04-07T01:03:52;-1.80;99.90
4759;DHT22;2393;50.560;12.636;2023-04-07T01:06:25;-1.80;99.90
4759;DHT22;2393;50.560;12.636;2023-04-07T01:09:01;-1.80;99.90
4759;DHT22;2393;50.560;12.636;2023-04-07T01:11:38;-1.90;99.90
4759;DHT22;2393;50.560;12.636;2023-04-07T01:14:12;-1.90;99.90
4759;DHT22;2393;50.560;12.636;2023-04-07T01:16:46;-1.90;99.90
4759;DHT22;2393;50.560;12.636;2023-04-07T01:19:32;-1.90;99.90
4759;DHT22;2393;50.560;12.636;2023-04-07T01:22:05;-1.90;99.90
4759;DHT22;2393;50.560;12.636;2023-04-07T01:24:45;-2.00;99.90
4759;DHT22;2393;50.560;12.636;2023-04-07T01:27:21;-2.00;99.90
4759;DHT22;2393;50.560;12.636;2023-04-07T01:29:53;-2.00;99.90
4759;DHT22;2393;50.560;12.636;2023-04-07T01:32:23;-2.00;99.90
4759;DHT22;2393;50.560;12.636;2023-04-07T01:34:53;-2.00;99.90
4759;DHT22;2393;50.560;12.636;2023-04-07T01:37:23;-2.00;99.90
4759;DHT22;2393;50.560;12.636;2023-04-07T01:39:52;-2.00;99.90
4759;DHT22;2393;50.560;12.636;2023-04-07T01:42:20;-2.10;99.90
4759;DHT22;2393;50.560;12.636;2023-04-07T01:44:49;-2.10;99.90
4759;DHT22;2393;50.560;12.636;2023-04-07T01:47:19;-2.10;99.90
4759;DHT22;2393;50.560;12.636;2023-04-07T01:49:49;-2.10;99.90
4759;DHT22;2393;50.560;12.636;2023-04-07T01:52:17;-2.10;99.90
4759;DHT22;2393;50.560;12.636;2023-04-07T01:54:46;-2.10;99.90
4759;DHT22;2393;50.560;12.636;2023-04-07T01:57:15;-2.20;99.90
4759;DHT22;2393;50.560;12.636;2023-04-07T01:59:43;-2.20;99.90
4759;DHT22;2393;50.560;12.636;2023-04-07T02:02:11;-2.20;99.90
4759;DHT22;2393;50.560;12.636;2023-04-07T02:04:46;-2.20;99.90
4759;DHT22;2393;50.560;12.636;2023-04-07T02:07:18;-2.20;99.90
4759;DHT22;2393;50.560;12.636;2023-04-07T02:09:50;-2.20;99.90
4759;DHT22;2393;50.560;12.636;2023-04-07T02:12:22;-2.20;99.90
4759;DHT22;2393;50.560;12.636;2023-04-07T02:15:02;-2.20;99.90
4759;DHT22;2393;50.560;12.636;2023-04-07T02:17:32;-2.30;99.90
4759;DHT22;2393;50.560;12.636;2023-04-07T02:20:04;-2.30;99.90
4759;DHT22;2393;50.560;12.636;2023-04-07T02:22:32;-2.30;99.90
4759;DHT22;2393;50.560;12.636;2023-04-07T02:25:00;-2.30;99.90
4759;DHT22;2393;50.560;12.636;2023-04-07T02:27:28;-2.30;99.90
4759;DHT22;2393;50.560;12.636;2023-04-07T02:29:56;-2.30;99.90
4759;DHT22;2393;50.560;12.636;2023-04-07T02:32:25;-2.40;99.90
4759;DHT22;2393;50.560;12.636;2023-04-07T02:34:53;-2.40;99.90
4759;DHT22;2393;50.560;12.636;2023-04-07T02:37:22;-2.40;99.90
4759;DHT22;2393;50.560;12.636;2023-04-07T02:39:50;-2.40;99.90
4759;DHT22;2393;50.560;12.636;2023-04-07T02:42:19;-2.40;99.90
4759;DHT22;2393;50.560;12.636;2023-04-07T02:44:47;-2.40;99.90
4759;DHT22;2393;50.560;12.636;2023-04-07T02:47:15;-2.40;99.90
4759;DHT22;2393;50.560;12.636;2023-04-07T02:49:43;-2.40;99.90
4759;DHT22;2393;50.560;12.636;2023-04-07T02:52:11;-2.40;99.90
4759;DHT22;2393;50.560;12.636;2023-04-07T02:54:41;-2.30;99.90
4759;DHT22;2393;50.560;12.636;2023-04-07T02:57:10;-2.40;99.90
4759;DHT22;2393;50.560;12.636;2023-04-07T02:59:39;-2.30;99.90
4759;DHT22;2393;50.560;12.636;2023-04-07T03:02:09;-2.30;99.90
4759;DHT22;2393;50.560;12.636;2023-04-07T03:04:38;-2.40;99.90
4759;DHT22;2393;50.560;12.636;2023-04-07T03:07:06;-2.40;99.90
4759;DHT22;2393;50.560;12.636;2023-04-07T03:09:34;-2.40;99.90
4759;DHT22;2393;50.560;12.636;2023-04-07T03:12:04;-2.40;99.90
4759;DHT22;2393;50.560;12.636;2023-04-07T03:14:34;-2.40;99.90
4759;DHT22;2393;50.560;12.636;2023-04-07T03:17:03;-2.40;99.90
4759;DHT22;2393;50.560;12.636;2023-04-07T03:19:32;-2.40;99.90
4759;DHT22;2393;50.560;12.636;2023-04-07T03:22:00;-2.40;99.90
4759;DHT22;2393;50.560;12.636;2023-04-07T03:24:34;-2.40;99.90
4759;DHT22;2393;50.560;12.636;2023-04-07T03:27:03;-2.40;99.90
4759;DHT22;2393;50.560;12.636;2023-04-07T03:29:38;-2.40;99.90
4759;DHT22;2393;50.560;12.636;2023-04-07T03:32:10;-2.40;99.90
4759;DHT22;2393;50.560;12.636;2023-04-07T03:34:38;-2.40;99.90
4759;DHT22;2393;50.560;12.636;2023-04-07T03:37:07;-2.40;99.90
4759;DHT22;2393;50.560;12.636;2023-04-07T03:39:36;-2.40;99.90
4759;DHT22;2393;50.560;12.636;2023-04-07T03:42:21;-2.40;99.90
4759;DHT22;2393;50.560;12.636;2023-04-07T03:44:52;-2.40;99.90
4759;DHT22;2393;50.560;12.636;2023-04-07T03:47:20;-2.40;99.90
4759;DHT22;2393;50.560;12.636;2023-04-07T03:49:54;-2.40;99.90
4759;DHT22;2393;50.560;12.636;2023-04-07T03:52:22;-2.40;99.90
4759;DHT22;2393;50.560;12.636;2023-04-07T03:54:55;-2.40;99.90
4759;DHT22;2393;50.560;12.636;2023-04-07T03:57:30;-2.40;99.90
4759;DHT22;2393;50.560;12.636;2023-04-07T03:59:58;-2.40;99.90
4759;DHT22;2393;50.560;12.636;2023-04-07T04:02:27;-2.40;99.90
4759;DHT22;2393;50.560;12.636;2023-04-07T04:04:56;-2.40;99.90
4759;DHT22;2393;50.560;12.636;2023-04-07T04:07:24;-2.40;99.90
4759;DHT22;2393;50.560;12.636;2023-04-07T04:09:59;-2.40;99.90
4759;DHT22;2393;50.560;12.636;2023-04-07T04:12:33;-2.40;99.90
4759;DHT22;2393;50.560;12.636;2023-04-07T04:15:08;-2.50;99.90
4759;DHT22;2393;50.560;12.636;2023-04-07T04:17:37;-2.50;99.90
4759;DHT22;2393;50.560;12.636;2023-04-07T04:20:07;-2.50;99.90
4759;DHT22;2393;50.560;12.636;2023-04-07T04:22:45;-2.50;99.90
4759;DHT22;2393;50.560;12.636;2023-04-07T04:25:13;-2.50;99.90
4759;DHT22;2393;50.560;12.636;2023-04-07T04:27:47;-2.50;99.90
4759;DHT22;2393;50.560;12.636;2023-04-07T04:30:19;-2.50;99.90
4759;DHT22;2393;50.560;12.636;2023-04-07T04:32:54;-2.40;99.90
4759;DHT22;2393;50.560;12.636;2023-04-07T04:35:46;-2.40;99.90
4759;DHT22;2393;50.560;12.636;2023-04-07T04:38:18;-2.40;99.90
4759;DHT22;2393;50.560;12.636;2023-04-07T04:40:54;-2.40;99.90
4759;DHT22;2393;50.560;12.636;2023-04-07T04:43:31;-2.30;99.90
4759;DHT22;2393;50.560;12.636;2023-04-07T04:46:00;-2.40;99.90
4759;DHT22;2393;50.560;12.636;2023-04-07T04:48:33;-2.30;99.90
4759;DHT22;2393;50.560;12.636;2023-04-07T04:51:04;-2.30;99.90
4759;DHT22;2393;50.560;12.636;2023-04-07T04:53:32;-2.20;99.90
4759;DHT22;2393;50.560;12.636;2023-04-07T04:56:01;-2.20;99.90
4759;DHT22;2393;50.560;12.636;2023-04-07T04:58:40;-2.10;99.90
4759;DHT22;2393;50.560;12.636;2023-04-07T05:01:18;-2.10;99.90
4759;DHT22;2393;50.560;12.636;2023-04-07T05:03:52;-2.00;99.90
4759;DHT22;2393;50.560;12.636;2023-04-07T05:06:27;-1.90;99.90
4759;DHT22;2393;50.560;12.636;2023-04-07T05:08:59;-1.70;99.90
4759;DHT22;2393;50.560;12.636;2023-04-07T05:11:33;-1.60;99.90
4759;DHT22;2393;50.560;12.636;2023-04-07T05:14:03;-1.40;99.90
4759;DHT22;2393;50.560;12.636;2023-04-07T05:16:31;-1.30;99.90
4759;DHT22;2393;50.560;12.636;2023-04-07T05:19:00;-1.30;99.90
4759;DHT22;2393;50.560;12.636;2023-04-07T05:21:29;-1.10;99.90
4759;DHT22;2393;50.560;12.636;2023-04-07T05:24:01;-0.90;99.90
4759;DHT22;2393;50.560;12.636;2023-04-07T05:26:32;-0.50;99.90
4759;DHT22;2393;50.560;12.636;2023-04-07T05:29:04;0.10;99.90
4759;DHT22;2393;50.560;12.636;2023-04-07T05:31:32;0.80;99.90
4759;DHT22;2393;50.560;12.636;2023-04-07T05:34:07;1.60;99.90
4759;DHT22;2393;50.560;12.636;2023-04-07T05:36:42;2.60;99.90
4759;DHT22;2393;50.560;12.636;2023-04-07T05:39:11;3.80;99.90
4759;DHT22;2393;50.560;12.636;2023-04-07T05:41:39;4.80;99.90
4759;DHT22;2393;50.560;12.636;2023-04-07T05:44:09;5.70;99.90
4759;DHT22;2393;50.560;12.636;2023-04-07T05:46:40;6.60;99.90
4759;DHT22;2393;50.560;12.636;2023-04-07T05:49:08;7.40;99.90
4759;DHT22;2393;50.560;12.636;2023-04-07T05:51:50;8.20;99.90
4759;DHT22;2393;50.560;12.636;2023-04-07T05:54:18;9.00;99.90
4759;DHT22;2393;50.560;12.636;2023-04-07T05:56:47;9.60;99.90
4759;DHT22;2393;50.560;12.636;2023-04-07T05:59:18;10.20;99.90
4759;DHT22;2393;50.560;12.636;2023-04-07T06:01:48;10.80;99.90
4759;DHT22;2393;50.560;12.636;2023-04-07T06:04:17;11.30;99.50
4759;DHT22;2393;50.560;12.636;2023-04-07T06:06:48;11.80;98.00
4759;DHT22;2393;50.560;12.636;2023-04-07T06:09:17;12.20;97.20
4759;DHT22;2393;50.560;12.636;2023-04-07T06:11:47;12.60;96.30
4759;DHT22;2393;50.560;12.636;2023-04-07T06:14:17;12.90;95.20
4759;DHT22;2393;50.560;12.636;2023-04-07T06:16:45;13.30;94.50
4759;DHT22;2393;50.560;12.636;2023-04-07T06:19:13;13.60;93.40
4759;DHT22;2393;50.560;12.636;2023-04-07T06:21:41;13.90;93.30
4759;DHT22;2393;50.560;12.636;2023-04-07T06:24:10;14.10;92.50
4759;DHT22;2393;50.560;12.636;2023-04-07T06:26:38;14.20;91.90
4759;DHT22;2393;50.560;12.636;2023-04-07T06:29:07;14.40;91.50
4759;DHT22;2393;50.560;12.636;2023-04-07T06:31:37;14.60;90.40
4759;DHT22;2393;50.560;12.636;2023-04-07T06:34:05;14.80;90.00
4759;DHT22;2393;50.560;12.636;2023-04-07T06:36:33;15.10;88.00
4759;DHT22;2393;50.560;12.636;2023-04-07T06:39:01;15.30;86.40
4759;DHT22;2393;50.560;12.636;2023-04-07T06:41:29;15.50;85.50
4759;DHT22;2393;50.560;12.636;2023-04-07T06:43:58;15.80;85.80
4759;DHT22;2393;50.560;12.636;2023-04-07T06:46:26;15.40;81.50
4759;DHT22;2393;50.560;12.636;2023-04-07T06:48:55;14.80;81.70
4759;DHT22;2393;50.560;12.636;2023-04-07T06:51:23;14.60;83.30
4759;DHT22;2393;50.560;12.636;2023-04-07T06:53:52;14.50;83.80
4759;DHT22;2393;50.560;12.636;2023-04-07T06:56:21;14.40;82.20
4759;DHT22;2393;50.560;12.636;2023-04-07T06:58:49;14.40;82.30
4759;DHT22;2393;50.560;12.636;2023-04-07T07:01:17;14.50;82.80
4759;DHT22;2393;50.560;12.636;2023-04-07T07:03:46;14.70;82.70
4759;DHT22;2393;50.560;12.636;2023-04-07T07:06:16;15.00;80.80
4759;DHT22;2393;50.560;12.636;2023-04-07T07:08:44;15.20;81.10
4759;DHT22;2393;50.560;12.636;2023-04-07T07:11:12;15.30;79.10
4759;DHT22;2393;50.560;12.636;2023-04-07T07:13:40;15.30;78.90
4759;DHT22;2393;50.560;12.636;2023-04-07T07:16:08;15.50;78.10
4759;DHT22;2393;50.560;12.636;2023-04-07T07:18:36;15.70;80.10
4759;DHT22;2393;50.560;12.636;2023-04-07T07:21:04;16.00;80.10
4759;DHT22;2393;50.560;12.636;2023-04-07T07:23:34;16.30;78.30
4759;DHT22;2393;50.560;12.636;2023-04-07T07:26:02;16.50;78.00
4759;DHT22;2393;50.560;12.636;2023-04-07T07:28:30;16.50;77.00
4759;DHT22;2393;50.560;12.636;2023-04-07T07:30:58;16.70;77.00
4759;DHT22;2393;50.560;12.636;2023-04-07T07:33:26;16.80;74.90
4759;DHT22;2393;50.560;12.636;2023-04-07T07:35:55;17.00;74.70
4759;DHT22;2393;50.560;12.636;2023-04-07T07:38:23;17.00;74.70
4759;DHT22;2393;50.560;12.636;2023-04-07T07:40:52;17.00;75.50
4759;DHT22;2393;50.560;12.636;2023-04-07T07:43:20;16.80;67.40
4759;DHT22;2393;50.560;12.636;2023-04-07T07:45:48;16.60;71.40
4759;DHT22;2393;50.560;12.636;2023-04-07T07:48:16;16.70;70.10
4759;DHT22;2393;50.560;12.636;2023-04-07T07:50:44;16.50;69.20
4759;DHT22;2393;50.560;12.636;2023-04-07T07:53:13;16.20;69.90
4759;DHT22;2393;50.560;12.636;2023-04-07T07:55:42;15.50;69.20
4759;DHT22;2393;50.560;12.636;2023-04-07T07:58:11;15.40;72.60
4759;DHT22;2393;50.560;12.636;2023-04-07T08:00:39;15.70;73.30
4759;DHT22;2393;50.560;12.636;2023-04-07T08:03:07;16.00;73.30
4759;DHT22;2393;50.560;12.636;2023-04-07T08:05:35;16.20;72.30
4759;DHT22;2393;50.560;12.636;2023-04-07T08:08:04;16.40;72.60
4759;DHT22;2393;50.560;12.636;2023-04-07T08:10:32;16.50;73.00
4759;DHT22;2393;50.560;12.636;2023-04-07T08:13:00;16.00;69.50
4759;DHT22;2393;50.560;12.636;2023-04-07T08:15:29;16.20;72.20
4759;DHT22;2393;50.560;12.636;2023-04-07T08:17:58;16.40;69.90
4759;DHT22;2393;50.560;12.636;2023-04-07T08:20:29;16.70;71.20
4759;DHT22;2393;50.560;12.636;2023-04-07T08:22:57;16.90;71.90
4759;DHT22;2393;50.560;12.636;2023-04-07T08:25:25;17.30;72.30
4759;DHT22;2393;50.560;12.636;2023-04-07T08:27:53;17.80;69.60
4759;DHT22;2393;50.560;12.636;2023-04-07T08:30:22;18.30;67.70
4759;DHT22;2393;50.560;12.636;2023-04-07T08:32:55;18.70;68.30
4759;DHT22;2393;50.560;12.636;2023-04-07T08:35:23;19.00;68.30
4759;DHT22;2393;50.560;12.636;2023-04-07T08:37:51;19.40;66.00
4759;DHT22;2393;50.560;12.636;2023-04-07T08:40:19;19.50;67.50
4759;DHT22;2393;50.560;12.636;2023-04-07T08:42:48;19.70;64.40
4759;DHT22;2393;50.560;12.636;2023-04-07T08:45:17;19.90;63.50
4759;DHT22;2393;50.560;12.636;2023-04-07T08:47:46;20.10;61.90
4759;DHT22;2393;50.560;12.636;2023-04-07T08:50:18;20.10;62.90
4759;DHT22;2393;50.560;12.636;2023-04-07T08:52:52;20.30;63.00
4759;DHT22;2393;50.560;12.636;2023-04-07T08:55:20;20.30;62.10
4759;DHT22;2393;50.560;12.636;2023-04-07T08:57:49;20.50;61.10
4759;DHT22;2393;50.560;12.636;2023-04-07T09:00:18;20.70;62.10
4759;DHT22;2393;50.560;12.636;2023-04-07T09:02:46;20.90;61.00
4759;DHT22;2393;50.560;12.636;2023-04-07T09:05:15;21.00;60.10
4759;DHT22;2393;50.560;12.636;2023-04-07T09:07:44;21.00;60.10
4759;DHT22;2393;50.560;12.636;2023-04-07T09:10:12;20.90;59.60
4759;DHT22;2393;50.560;12.636;2023-04-07T09:12:40;20.70;58.30
4759;DHT22;2393;50.560;12.636;2023-04-07T09:15:09;20.30;59.10
4759;DHT22;2393;50.560;12.636;2023-04-07T09:17:37;20.00;58.50
4759;DHT22;2393;50.560;12.636;2023-04-07T09:20:06;19.70;59.80
4759;DHT22;2393;50.560;12.636;2023-04-07T09:22:35;19.50;59.40
4759;DHT22;2393;50.560;12.636;2023-04-07T09:25:16;19.20;60.30
4759;DHT22;2393;50.560;12.636;2023-04-07T09:27:55;19.10;60.80
4759;DHT22;2393;50.560;12.636;2023-04-07T09:30:23;18.80;59.80
4759;DHT22;2393;50.560;12.636;2023-04-07T09:32:51;18.40;61.10
4759;DHT22;2393;50.560;12.636;2023-04-07T09:35:20;18.40;59.30
4759;DHT22;2393;50.560;12.636;2023-04-07T09:38:04;18.60;59.90
4759;DHT22;2393;50.560;12.636;2023-04-07T09:40:35;18.90;64.10
4759;DHT22;2393;50.560;12.636;2023-04-07T09:43:05;19.20;64.80
4759;DHT22;2393;50.560;12.636;2023-04-07T09:45:33;19.30;61.30
4759;DHT22;2393;50.560;12.636;2023-04-07T09:48:06;19.30;61.30
4759;DHT22;2393;50.560;12.636;2023-04-07T09:50:38;19.50;61.50
4759;DHT22;2393;50.560;12.636;2023-04-07T09:53:07;19.80;60.20
4759;DHT22;2393;50.560;12.636;2023-04-07T09:55:37;20.20;63.80
4759;DHT22;2393;50.560;12.636;2023-04-07T09:58:07;20.40;63.80
4759;DHT22;2393;50.560;12.636;2023-04-07T10:00:36;20.30;61.60
4759;DHT22;2393;50.560;12.636;2023-04-07T10:03:04;20.40;63.30
4759;DHT22;2393;50.560;12.636;2023-04-07T10:05:34;20.50;61.10
4759;DHT22;2393;50.560;12.636;2023-04-07T10:08:05;20.60;61.80
4759;DHT22;2393;50.560;12.636;2023-04-07T10:10:37;20.50;61.50
4759;DHT22;2393;50.560;12.636;2023-04-07T10:13:08;20.50;64.30
4759;DHT22;2393;50.560;12.636;2023-04-07T10:15:36;20.60;63.30
4759;DHT22;2393;50.560;12.636;2023-04-07T10:18:06;20.60;64.50
4759;DHT22;2393;50.560;12.636;2023-04-07T10:20:36;20.50;63.20
4759;DHT22;2393;50.560;12.636;2023-04-07T10:23:15;20.30;63.70
4759;DHT22;2393;50.560;12.636;2023-04-07T10:25:49;20.50;61.80
4759;DHT22;2393;50.560;12.636;2023-04-07T10:28:21;20.40;62.50
4759;DHT22;2393;50.560;12.636;2023-04-07T10:30:50;20.30;62.70
4759;DHT22;2393;50.560;12.636;2023-04-07T10:33:43;20.10;61.90
4759;DHT22;2393;50.560;12.636;2023-04-07T10:36:12;20.00;62.20
4759;DHT22;2393;50.560;12.636;2023-04-07T10:38:40;19.90;60.80
4759;DHT22;2393;50.560;12.636;2023-04-07T10:41:31;19.80;61.50
4759;DHT22;2393;50.560;12.636;2023-04-07T10:44:00;19.90;60.90
4759;DHT22;2393;50.560;12.636;2023-04-07T10:47:03;20.00;58.00
4759;DHT22;2393;50.560;12.636;2023-04-07T10:49:32;19.90;63.40
4759;DHT22;2393;50.560;12.636;2023-04-07T10:52:22;20.10;62.30
4759;DHT22;2393;50.560;12.636;2023-04-07T11:01:17;19.80;57.70
4759;DHT22;2393;50.560;12.636;2023-04-07T11:03:57;19.60;58.70
4759;DHT22;2393;50.560;12.636;2023-04-07T11:06:26;19.40;58.60
4759;DHT22;2393;50.560;12.636;2023-04-07T11:08:54;19.60;57.60
4759;DHT22;2393;50.560;12.636;2023-04-07T11:11:37;18.80;55.20
4759;DHT22;2393;50.560;12.636;2023-04-07T11:14:07;18.90;60.70
4759;DHT22;2393;50.560;12.636;2023-04-07T11:16:37;19.20;57.40
4759;DHT22;2393;50.560;12.636;2023-04-07T11:19:06;19.30;57.40
4759;DHT22;2393;50.560;12.636;2023-04-07T11:21:34;19.20;58.90
4759;DHT22;2393;50.560;12.636;2023-04-07T11:24:03;19.30;60.20
4759;DHT22;2393;50.560;12.636;2023-04-07T11:26:39;19.20;59.70
4759;DHT22;2393;50.560;12.636;2023-04-07T11:29:08;19.10;60.00
4759;DHT22;2393;50.560;12.636;2023-04-07T11:31:38;19.10;58.40
4759;DHT22;2393;50.560;12.636;2023-04-07T11:34:07;19.10;56.40
4759;DHT22;2393;50.560;12.636;2023-04-07T11:36:38;19.10;58.40
4759;DHT22;2393;50.560;12.636;2023-04-07T11:39:17;19.10;59.00
4759;DHT22;2393;50.560;12.636;2023-04-07T11:41:47;19.00;56.10
4759;DHT22;2393;50.560;12.636;2023-04-07T11:44:16;18.80;58.90
4759;DHT22;2393;50.560;12.636;2023-04-07T11:46:55;18.60;61.00
4759;DHT22;2393;50.560;12.636;2023-04-07T11:49:24;18.60;61.50
4759;DHT22;2393;50.560;12.636;2023-04-07T11:51:57;18.60;61.00
4759;DHT22;2393;50.560;12.636;2023-04-07T11:54:26;18.50;61.00
4759;DHT22;2393;50.560;12.636;2023-04-07T11:56:54;18.20;58.50
4759;DHT22;2393;50.560;12.636;2023-04-07T11:59:25;17.90;61.30
4759;DHT22;2393;50.560;12.636;2023-04-07T12:01:53;17.80;59.60
4759;DHT22;2393;50.560;12.636;2023-04-07T12:04:23;17.60;60.40
4759;DHT22;2393;50.560;12.636;2023-04-07T12:06:52;17.50;61.00
4759;DHT22;2393;50.560;12.636;2023-04-07T12:09:28;17.30;61.30
4759;DHT22;2393;50.560;12.636;2023-04-07T12:11:57;17.10;62.50
4759;DHT22;2393;50.560;12.636;2023-04-07T12:14:26;17.00;60.40
4759;DHT22;2393;50.560;12.636;2023-04-07T12:16:55;17.10;62.50
4759;DHT22;2393;50.560;12.636;2023-04-07T12:19:25;17.20;63.80
4759;DHT22;2393;50.560;12.636;2023-04-07T12:21:53;17.30;63.10
4759;DHT22;2393;50.560;12.636;2023-04-07T12:24:21;17.30;64.10
4759;DHT22;2393;50.560;12.636;2023-04-07T12:26:51;17.40;64.20
4759;DHT22;2393;50.560;12.636;2023-04-07T12:29:19;17.20;62.00
4759;DHT22;2393;50.560;12.636;2023-04-07T12:31:48;17.00;61.80
4759;DHT22;2393;50.560;12.636;2023-04-07T12:34:17;17.10;63.20
4759;DHT22;2393;50.560;12.636;2023-04-07T12:36:45;17.00;61.10
4759;DHT22;2393;50.560;12.636;2023-04-07T12:39:14;16.90;62.50
4759;DHT22;2393;50.560;12.636;2023-04-07T12:41:42;16.70;60.60
4759;DHT22;2393;50.560;12.636;2023-04-07T12:44:11;15.50;60.60
4759;DHT22;2393;50.560;12.636;2023-04-07T12:46:39;15.40;62.90
4759;DHT22;2393;50.560;12.636;2023-04-07T12:49:10;15.40;62.40
4759;DHT22;2393;50.560;12.636;2023-04-07T12:51:38;15.30;61.30
4759;DHT22;2393;50.560;12.636;2023-04-07T12:54:06;15.10;61.90
4759;DHT22;2393;50.560;12.636;2023-04-07T12:56:34;15.30;62.00
4759;DHT22;2393;50.560;12.636;2023-04-07T12:59:03;15.40;62.30
4759;DHT22;2393;50.560;12.636;2023-04-07T13:01:32;15.50;65.00
4759;DHT22;2393;50.560;12.636;2023-04-07T13:04:01;15.60;63.90
4759;DHT22;2393;50.560;12.636;2023-04-07T13:06:31;15.70;64.40
4759;DHT22;2393;50.560;12.636;2023-04-07T13:08:59;15.60;64.20
4759;DHT22;2393;50.560;12.636;2023-04-07T13:11:27;15.60;63.10
4759;DHT22;2393;50.560;12.636;2023-04-07T13:13:55;15.50;63.20
4759;DHT22;2393;50.560;12.636;2023-04-07T13:16:27;15.40;62.60
4759;DHT22;2393;50.560;12.636;2023-04-07T13:18:55;15.50;63.80
4759;DHT22;2393;50.560;12.636;2023-04-07T13:21:23;14.80;62.80
4759;DHT22;2393;50.560;12.636;2023-04-07T13:23:55;14.80;63.60
4759;DHT22;2393;50.560;12.636;2023-04-07T13:26:23;15.00;65.20
4759;DHT22;2393;50.560;12.636;2023-04-07T13:28:51;15.10;64.50
4759;DHT22;2393;50.560;12.636;2023-04-07T13:31:19;15.30;64.80
4759;DHT22;2393;50.560;12.636;2023-04-07T13:33:49;15.50;63.50
4759;DHT22;2393;50.560;12.636;2023-04-07T13:36:17;15.60;65.40
4759;DHT22;2393;50.560;12.636;2023-04-07T13:38:49;15.60;63.20
4759;DHT22;2393;50.560;12.636;2023-04-07T13:41:18;15.50;64.90
4759;DHT22;2393;50.560;12.636;2023-04-07T13:43:47;15.40;63.60
4759;DHT22;2393;50.560;12.636;2023-04-07T13:46:15;15.30;62.90
4759;DHT22;2393;50.560;12.636;2023-04-07T13:48:54;15.00;60.80
4759;DHT22;2393;50.560;12.636;2023-04-07T13:51:22;14.00;62.10
4759;DHT22;2393;50.560;12.636;2023-04-07T13:53:50;13.90;65.00
4759;DHT22;2393;50.560;12.636;2023-04-07T13:56:20;14.00;66.30
4759;DHT22;2393;50.560;12.636;2023-04-07T13:58:49;13.90;64.70
4759;DHT22;2393;50.560;12.636;2023-04-07T14:01:17;13.80;64.90
4759;DHT22;2393;50.560;12.636;2023-04-07T14:03:46;13.90;63.90
4759;DHT22;2393;50.560;12.636;2023-04-07T14:06:15;14.10;62.80
4759;DHT22;2393;50.560;12.636;2023-04-07T14:08:43;14.50;66.50
4759;DHT22;2393;50.560;12.636;2023-04-07T14:11:15;14.90;65.00
4759;DHT22;2393;50.560;12.636;2023-04-07T14:13:45;15.10;61.30
4759;DHT22;2393;50.560;12.636;2023-04-07T14:16:13;15.30;65.70
4759;DHT22;2393;50.560;12.636;2023-04-07T14:18:41;15.70;64.70
4759;DHT22;2393;50.560;12.636;2023-04-07T14:21:09;16.10;63.80
4759;DHT22;2393;50.560;12.636;2023-04-07T14:23:37;16.40;60.30
4759;DHT22;2393;50.560;12.636;2023-04-07T14:26:08;16.50;62.40
4759;DHT22;2393;50.560;12.636;2023-04-07T14:28:36;16.40;61.80
4759;DHT22;2393;50.560;12.636;2023-04-07T14:31:09;16.20;61.80
4759;DHT22;2393;50.560;12.636;2023-04-07T14:33:38;16.00;61.20
4759;DHT22;2393;50.560;12.636;2023-04-07T14:36:06;15.80;60.40
4759;DHT22;2393;50.560;12.636;2023-04-07T14:38:34;15.60;60.20
4759;DHT22;2393;50.560;12.636;2023-04-07T14:41:03;15.40;60.80
4759;DHT22;2393;50.560;12.636;2023-04-07T14:43:36;15.20;62.10
4759;DHT22;2393;50.560;12.636;2023-04-07T14:46:06;15.00;63.50
4759;DHT22;2393;50.560;12.636;2023-04-07T14:48:34;14.90;64.00
4759;DHT22;2393;50.560;12.636;2023-04-07T14:51:03;14.70;64.10
4759;DHT22;2393;50.560;12.636;2023-04-07T14:53:37;14.60;64.00
4759;DHT22;2393;50.560;12.636;2023-04-07T14:56:06;14.40;63.40
4759;DHT22;2393;50.560;12.636;2023-04-07T14:58:34;14.30;64.00
4759;DHT22;2393;50.560;12.636;2023-04-07T15:01:06;14.20;64.70
4759;DHT22;2393;50.560;12.636;2023-04-07T15:03:34;14.10;65.70
4759;DHT22;2393;50.560;12.636;2023-04-07T15:06:05;14.10;66.50
4759;DHT22;2393;50.560;12.636;2023-04-07T15:08:34;14.00;66.60
4759;DHT22;2393;50.560;12.636;2023-04-07T15:11:03;13.90;66.90
4759;DHT22;2393;50.560;12.636;2023-04-07T15:13:32;13.90;68.00
4759;DHT22;2393;50.560;12.636;2023-04-07T15:16:09;13.80;66.80
4759;DHT22;2393;50.560;12.636;2023-04-07T15:18:39;13.50;66.20
4759;DHT22;2393;50.560;12.636;2023-04-07T15:21:08;13.40;66.40
4759;DHT22;2393;50.560;12.636;2023-04-07T15:23:37;13.40;65.70
4759;DHT22;2393;50.560;12.636;2023-04-07T15:26:06;13.40;67.10
4759;DHT22;2393;50.560;12.636;2023-04-07T15:28:35;13.50;67.00
4759;DHT22;2393;50.560;12.636;2023-04-07T15:31:03;13.50;67.10
4759;DHT22;2393;50.560;12.636;2023-04-07T15:33:37;13.40;65.40
4759;DHT22;2393;50.560;12.636;2023-04-07T15:36:06;13.30;66.00
4759;DHT22;2393;50.560;12.636;2023-04-07T15:38:34;13.20;65.80
4759;DHT22;2393;50.560;12.636;2023-04-07T15:41:04;13.20;66.80
4759;DHT22;2393;50.560;12.636;2023-04-07T15:43:32;13.10;67.70
4759;DHT22;2393;50.560;12.636;2023-04-07T15:46:01;13.00;66.40
4759;DHT22;2393;50.560;12.636;2023-04-07T15:48:29;13.00;66.10
4759;DHT22;2393;50.560;12.636;2023-04-07T15:50:58;13.00;66.50
4759;DHT22;2393;50.560;12.636;2023-04-07T15:53:26;13.00;66.30
4759;DHT22;2393;50.560;12.636;2023-04-07T15:55:54;13.00;66.50
4759;DHT22;2393;50.560;12.636;2023-04-07T15:58:22;13.00;67.50
4759;DHT22;2393;50.560;12.636;2023-04-07T16:00:50;13.00;67.20
4759;DHT22;2393;50.560;12.636;2023-04-07T16:03:19;12.90;66.50
4759;DHT22;2393;50.560;12.636;2023-04-07T16:05:47;12.80;67.70
4759;DHT22;2393;50.560;12.636;2023-04-07T16:08:18;12.80;68.30
4759;DHT22;2393;50.560;12.636;2023-04-07T16:10:46;12.70;69.40
4759;DHT22;2393;50.560;12.636;2023-04-07T16:13:14;12.70;68.90